Airfield :
LOGIN :

Register | Disclaimer

   EN    FR    IT 

 










Legend :    VFR   Marginal VFR   IFR   Intensive IFR   Very Intensive IFR
Visi :
Ceiling :
>= 8 km
>= 3000ft
5 to 8 km
1000 to 3000 ft
1500m to 5 km
500 to 1000 ft
800 to 1500m
200 to 500 ft
< 800m
< 200 ft
Symbols :   Thunderstorms  Fog  Heavy snow  Heavy precipitations  Wind > 20 kt
SIGMETs :     Misc.  Thunderstorms  Icing  Turbulence  Mountain Waves  Volcanic Ashes






- Airport Elevation : 1411 ft
- IATA code : GVA


LSGG - Genève Cointrin

CURRENT METAR :
  • 280020Z AUTO 01003KT 9999 NCD 15/11 Q1021 NOSIG

EXPIRED METARs :
  • 272350Z AUTO 36004KT 300V030 9999 NCD 16/11 Q1021 NOSIG
  • 272320Z AUTO 04009KT 9999 NCD 17/11 Q1021 NOSIG
  • 272250Z AUTO 05009KT 9999 NCD 17/11 Q1021 NOSIG
  • 272220Z AUTO 06010KT 9999 NCD 17/11 Q1021 NOSIG
  • 272150Z AUTO 06010KT 9999 NCD 18/11 Q1021 NOSIG

TAF TAF LSGG
Valid from the 28 at 00:00 until the 29 at 06:00 UTC


272325Z 2800/2906 05010KT 9999 FEW040 TX21/2815Z TN11/2805Z TN09/2905Z
BECMG 2819/2821 CAVOK
ATIS : +41 22 417 40 81



MET'MAP, your aeronautical weather chart ! - Copyright ORBIFLY December 2007 - Disclaimer

ORBIFLY MET'MAP TEAM :

Programming & Development : Alexandra Zaïnal
Original concept : Baudouin d'Aumeries
Technical & hardware support : Manuel Goepfert
Assistance : Marc-Olivier Méhu

Contact : metmap@orbifly.com




SOURCES & CREDITS :

   NOAA